sensor_id;sensor_type;location;lat;lon;timestamp;P1;durP1;ratioP1;P2;durP2;ratioP2
65271;SDS011;51868;48.812;8.198;2022-10-04T00:02:04;8.07;;;5.82;;
65271;SDS011;51868;48.812;8.198;2022-10-04T00:04:47;8.80;;;5.75;;
65271;SDS011;51868;48.812;8.198;2022-10-04T00:07:20;9.77;;;5.80;;
65271;SDS011;51868;48.812;8.198;2022-10-04T00:09:51;13.13;;;6.00;;
65271;SDS011;51868;48.812;8.198;2022-10-04T00:12:23;12.53;;;6.83;;
65271;SDS011;51868;48.812;8.198;2022-10-04T00:14:53;14.57;;;7.00;;
65271;SDS011;51868;48.812;8.198;2022-10-04T00:17:23;10.88;;;5.55;;
65271;SDS011;51868;48.812;8.198;2022-10-04T00:19:55;5.93;;;4.53;;
65271;SDS011;51868;48.812;8.198;2022-10-04T00:22:24;8.18;;;4.50;;
65271;SDS011;51868;48.812;8.198;2022-10-04T00:31:09;11.75;;;3.63;;
65271;SDS011;51868;48.812;8.198;2022-10-04T00:33:40;7.55;;;5.32;;
65271;SDS011;51868;48.812;8.198;2022-10-04T00:39:14;10.10;;;5.10;;
65271;SDS011;51868;48.812;8.198;2022-10-04T00:42:02;10.10;;;5.70;;
65271;SDS011;51868;48.812;8.198;2022-10-04T00:44:40;10.45;;;5.22;;
65271;SDS011;51868;48.812;8.198;2022-10-04T00:47:16;11.82;;;5.03;;
65271;SDS011;51868;48.812;8.198;2022-10-04T00:49:50;10.50;;;5.00;;
65271;SDS011;51868;48.812;8.198;2022-10-04T00:52:24;8.80;;;5.00;;
65271;SDS011;51868;48.812;8.198;2022-10-04T00:54:56;11.45;;;6.28;;
65271;SDS011;51868;48.812;8.198;2022-10-04T00:57:27;7.82;;;5.03;;
65271;SDS011;51868;48.812;8.198;2022-10-04T00:59:58;5.57;;;4.15;;
65271;SDS011;51868;48.812;8.198;2022-10-04T01:02:30;9.27;;;4.53;;
65271;SDS011;51868;48.812;8.198;2022-10-04T01:05:04;10.32;;;4.55;;
65271;SDS011;51868;48.812;8.198;2022-10-04T01:07:38;13.02;;;5.63;;
65271;SDS011;51868;48.812;8.198;2022-10-04T01:10:09;14.52;;;6.88;;
65271;SDS011;51868;48.812;8.198;2022-10-04T01:12:43;52.75;;;19.60;;
65271;SDS011;51868;48.812;8.198;2022-10-04T01:15:17;31.33;;;13.90;;
65271;SDS011;51868;48.812;8.198;2022-10-04T01:18:04;31.40;;;12.77;;
65271;SDS011;51868;48.812;8.198;2022-10-04T01:20:37;33.83;;;14.82;;
65271;SDS011;51868;48.812;8.198;2022-10-04T01:23:09;28.00;;;12.45;;
65271;SDS011;51868;48.812;8.198;2022-10-04T01:25:47;28.42;;;12.30;;
65271;SDS011;51868;48.812;8.198;2022-10-04T01:28:15;19.45;;;9.38;;
65271;SDS011;51868;48.812;8.198;2022-10-04T01:30:44;22.98;;;8.90;;
65271;SDS011;51868;48.812;8.198;2022-10-04T01:33:12;11.60;;;6.43;;
65271;SDS011;51868;48.812;8.198;2022-10-04T01:35:39;9.88;;;4.30;;
65271;SDS011;51868;48.812;8.198;2022-10-04T01:38:09;11.30;;;5.07;;
65271;SDS011;51868;48.812;8.198;2022-10-04T01:40:39;9.57;;;5.25;;
65271;SDS011;51868;48.812;8.198;2022-10-04T01:43:13;4.70;;;3.72;;
65271;SDS011;51868;48.812;8.198;2022-10-04T01:45:47;6.93;;;3.75;;
65271;SDS011;51868;48.812;8.198;2022-10-04T01:48:20;7.15;;;4.07;;
65271;SDS011;51868;48.812;8.198;2022-10-04T01:50:51;4.32;;;3.20;;
65271;SDS011;51868;48.812;8.198;2022-10-04T01:53:25;4.47;;;3.22;;
65271;SDS011;51868;48.812;8.198;2022-10-04T01:55:55;4.45;;;3.10;;
65271;SDS011;51868;48.812;8.198;2022-10-04T01:58:31;4.82;;;3.55;;
65271;SDS011;51868;48.812;8.198;2022-10-04T02:01:07;9.30;;;4.00;;
65271;SDS011;51868;48.812;8.198;2022-10-04T02:03:41;8.10;;;4.07;;
65271;SDS011;51868;48.812;8.198;2022-10-04T02:06:13;7.32;;;4.30;;
65271;SDS011;51868;48.812;8.198;2022-10-04T02:08:46;5.55;;;3.55;;
65271;SDS011;51868;48.812;8.198;2022-10-04T02:11:15;7.68;;;4.65;;
65271;SDS011;51868;48.812;8.198;2022-10-04T02:13:46;6.07;;;3.78;;
65271;SDS011;51868;48.812;8.198;2022-10-04T02:16:16;9.55;;;4.28;;
65271;SDS011;51868;48.812;8.198;2022-10-04T02:18:45;5.22;;;3.60;;
65271;SDS011;51868;48.812;8.198;2022-10-04T02:21:13;6.15;;;4.10;;
65271;SDS011;51868;48.812;8.198;2022-10-04T02:23:42;4.95;;;3.80;;
65271;SDS011;51868;48.812;8.198;2022-10-04T02:26:12;8.45;;;4.53;;
65271;SDS011;51868;48.812;8.198;2022-10-04T02:28:39;12.10;;;4.82;;
65271;SDS011;51868;48.812;8.198;2022-10-04T02:31:07;8.93;;;4.65;;
65271;SDS011;51868;48.812;8.198;2022-10-04T02:33:56;10.07;;;4.03;;
65271;SDS011;51868;48.812;8.198;2022-10-04T02:36:25;5.75;;;3.38;;
65271;SDS011;51868;48.812;8.198;2022-10-04T02:38:56;5.70;;;3.85;;
65271;SDS011;51868;48.812;8.198;2022-10-04T02:41:30;7.85;;;4.25;;
65271;SDS011;51868;48.812;8.198;2022-10-04T02:44:01;7.45;;;3.30;;
65271;SDS011;51868;48.812;8.198;2022-10-04T02:46:35;6.60;;;4.05;;
65271;SDS011;51868;48.812;8.198;2022-10-04T02:49:12;7.35;;;3.50;;
65271;SDS011;51868;48.812;8.198;2022-10-04T02:51:49;6.97;;;3.90;;
65271;SDS011;51868;48.812;8.198;2022-10-04T02:54:21;6.50;;;3.60;;
65271;SDS011;51868;48.812;8.198;2022-10-04T02:56:56;6.63;;;3.55;;
65271;SDS011;51868;48.812;8.198;2022-10-04T02:59:24;7.32;;;3.97;;
65271;SDS011;51868;48.812;8.198;2022-10-04T03:01:54;5.03;;;3.67;;
65271;SDS011;51868;48.812;8.198;2022-10-04T03:04:23;6.00;;;3.38;;
65271;SDS011;51868;48.812;8.198;2022-10-04T03:06:53;5.20;;;3.22;;
65271;SDS011;51868;48.812;8.198;2022-10-04T03:09:22;5.05;;;2.90;;
65271;SDS011;51868;48.812;8.198;2022-10-04T03:14:24;4.47;;;3.05;;
65271;SDS011;51868;48.812;8.198;2022-10-04T03:16:55;6.57;;;3.03;;
65271;SDS011;51868;48.812;8.198;2022-10-04T03:19:26;5.38;;;3.10;;
65271;SDS011;51868;48.812;8.198;2022-10-04T03:21:56;4.90;;;3.28;;
65271;SDS011;51868;48.812;8.198;2022-10-04T03:24:29;4.45;;;2.92;;
65271;SDS011;51868;48.812;8.198;2022-10-04T03:27:00;4.05;;;2.88;;
65271;SDS011;51868;48.812;8.198;2022-10-04T03:29:31;3.45;;;3.00;;
65271;SDS011;51868;48.812;8.198;2022-10-04T03:32:00;4.68;;;3.10;;
65271;SDS011;51868;48.812;8.198;2022-10-04T03:34:31;5.47;;;3.25;;
65271;SDS011;51868;48.812;8.198;2022-10-04T03:37:00;4.53;;;3.13;;
65271;SDS011;51868;48.812;8.198;2022-10-04T03:39:30;4.68;;;3.10;;
65271;SDS011;51868;48.812;8.198;2022-10-04T03:42:02;4.60;;;3.25;;
65271;SDS011;51868;48.812;8.198;2022-10-04T03:44:34;7.70;;;3.38;;
65271;SDS011;51868;48.812;8.198;2022-10-04T03:47:06;5.05;;;3.38;;
65271;SDS011;51868;48.812;8.198;2022-10-04T03:49:36;6.38;;;3.70;;
65271;SDS011;51868;48.812;8.198;2022-10-04T03:52:04;4.82;;;3.40;;
65271;SDS011;51868;48.812;8.198;2022-10-04T03:54:34;4.53;;;3.35;;
65271;SDS011;51868;48.812;8.198;2022-10-04T03:57:03;7.43;;;3.92;;
65271;SDS011;51868;48.812;8.198;2022-10-04T03:59:32;5.20;;;3.75;;
65271;SDS011;51868;48.812;8.198;2022-10-04T04:02:04;7.78;;;4.25;;
65271;SDS011;51868;48.812;8.198;2022-10-04T04:04:40;4.75;;;3.65;;
65271;SDS011;51868;48.812;8.198;2022-10-04T04:07:16;13.05;;;5.30;;
65271;SDS011;51868;48.812;8.198;2022-10-04T04:09:51;5.32;;;3.80;;
65271;SDS011;51868;48.812;8.198;2022-10-04T04:12:29;6.93;;;4.75;;
65271;SDS011;51868;48.812;8.198;2022-10-04T04:15:04;5.50;;;4.50;;
65271;SDS011;51868;48.812;8.198;2022-10-04T04:17:37;6.35;;;4.35;;
65271;SDS011;51868;48.812;8.198;2022-10-04T04:20:17;9.30;;;5.35;;
65271;SDS011;51868;48.812;8.198;2022-10-04T04:22:52;8.48;;;4.60;;
65271;SDS011;51868;48.812;8.198;2022-10-04T04:25:25;9.13;;;4.63;;
65271;SDS011;51868;48.812;8.198;2022-10-04T04:27:58;7.55;;;4.32;;
65271;SDS011;51868;48.812;8.198;2022-10-04T04:30:31;7.38;;;4.07;;
65271;SDS011;51868;48.812;8.198;2022-10-04T04:33:06;3.97;;;3.30;;
65271;SDS011;51868;48.812;8.198;2022-10-04T04:35:44;4.75;;;3.55;;
65271;SDS011;51868;48.812;8.198;2022-10-04T04:38:13;37.33;;;5.82;;
65271;SDS011;51868;48.812;8.198;2022-10-04T04:40:44;37.10;;;6.32;;
65271;SDS011;51868;48.812;8.198;2022-10-04T04:43:15;26.27;;;5.10;;
65271;SDS011;51868;48.812;8.198;2022-10-04T04:45:45;25.00;;;5.70;;
65271;SDS011;51868;48.812;8.198;2022-10-04T04:48:34;22.50;;;5.40;;
65271;SDS011;51868;48.812;8.198;2022-10-04T04:51:03;42.38;;;6.32;;
65271;SDS011;51868;48.812;8.198;2022-10-04T04:53:31;52.38;;;7.13;;
65271;SDS011;51868;48.812;8.198;2022-10-04T04:55:59;47.75;;;10.40;;
65271;SDS011;51868;48.812;8.198;2022-10-04T04:58:32;40.17;;;10.25;;
65271;SDS011;51868;48.812;8.198;2022-10-04T05:01:03;36.53;;;8.35;;
65271;SDS011;51868;48.812;8.198;2022-10-04T05:03:35;35.47;;;6.70;;
65271;SDS011;51868;48.812;8.198;2022-10-04T05:06:03;45.38;;;7.90;;
65271;SDS011;51868;48.812;8.198;2022-10-04T05:08:32;47.15;;;9.10;;
65271;SDS011;51868;48.812;8.198;2022-10-04T05:11:09;25.27;;;10.10;;
65271;SDS011;51868;48.812;8.198;2022-10-04T05:13:43;37.85;;;6.55;;
65271;SDS011;51868;48.812;8.198;2022-10-04T05:16:16;27.35;;;7.25;;
65271;SDS011;51868;48.812;8.198;2022-10-04T05:18:47;13.88;;;6.13;;
65271;SDS011;51868;48.812;8.198;2022-10-04T05:21:21;28.95;;;6.60;;
65271;SDS011;51868;48.812;8.198;2022-10-04T05:23:51;50.42;;;7.00;;
65271;SDS011;51868;48.812;8.198;2022-10-04T05:26:23;46.25;;;7.78;;
65271;SDS011;51868;48.812;8.198;2022-10-04T05:28:55;29.95;;;7.07;;
65271;SDS011;51868;48.812;8.198;2022-10-04T05:31:29;22.30;;;6.10;;
65271;SDS011;51868;48.812;8.198;2022-10-04T05:34:14;51.00;;;8.27;;
65271;SDS011;51868;48.812;8.198;2022-10-04T05:36:52;92.13;;;8.52;;
65271;SDS011;51868;48.812;8.198;2022-10-04T05:39:27;47.13;;;7.65;;
65271;SDS011;51868;48.812;8.198;2022-10-04T05:42:00;49.33;;;7.45;;
65271;SDS011;51868;48.812;8.198;2022-10-04T05:44:35;59.67;;;7.88;;
65271;SDS011;51868;48.812;8.198;2022-10-04T05:47:11;55.20;;;8.02;;
65271;SDS011;51868;48.812;8.198;2022-10-04T05:49:41;11.32;;;5.47;;
65271;SDS011;51868;48.812;8.198;2022-10-04T05:52:12;16.83;;;5.80;;
65271;SDS011;51868;48.812;8.198;2022-10-04T05:54:41;13.98;;;5.40;;
65271;SDS011;51868;48.812;8.198;2022-10-04T05:57:12;23.23;;;7.03;;
65271;SDS011;51868;48.812;8.198;2022-10-04T06:02:53;25.33;;;6.47;;
65271;SDS011;51868;48.812;8.198;2022-10-04T06:05:47;39.80;;;6.65;;
65271;SDS011;51868;48.812;8.198;2022-10-04T06:08:24;19.25;;;5.97;;
65271;SDS011;51868;48.812;8.198;2022-10-04T06:11:04;17.88;;;10.55;;
65271;SDS011;51868;48.812;8.198;2022-10-04T06:16:43;27.42;;;6.72;;
65271;SDS011;51868;48.812;8.198;2022-10-04T06:19:30;10.77;;;5.60;;
65271;SDS011;51868;48.812;8.198;2022-10-04T06:22:13;7.88;;;5.43;;
65271;SDS011;51868;48.812;8.198;2022-10-04T06:24:42;9.80;;;5.78;;
65271;SDS011;51868;48.812;8.198;2022-10-04T06:27:16;8.30;;;5.38;;
65271;SDS011;51868;48.812;8.198;2022-10-04T06:29:49;7.28;;;5.50;;
65271;SDS011;51868;48.812;8.198;2022-10-04T06:38:43;7.88;;;5.95;;
65271;SDS011;51868;48.812;8.198;2022-10-04T06:41:33;10.60;;;6.10;;
65271;SDS011;51868;48.812;8.198;2022-10-04T06:44:15;9.63;;;6.00;;
65271;SDS011;51868;48.812;8.198;2022-10-04T06:47:20;9.77;;;6.90;;
65271;SDS011;51868;48.812;8.198;2022-10-04T06:50:02;15.80;;;9.77;;
65271;SDS011;51868;48.812;8.198;2022-10-04T06:52:51;13.80;;;8.68;;
65271;SDS011;51868;48.812;8.198;2022-10-04T06:55:32;8.73;;;6.07;;
65271;SDS011;51868;48.812;8.198;2022-10-04T06:58:26;8.98;;;6.35;;
65271;SDS011;51868;48.812;8.198;2022-10-04T07:06:19;10.50;;;5.80;;
65271;SDS011;51868;48.812;8.198;2022-10-04T07:08:52;7.35;;;5.85;;
65271;SDS011;51868;48.812;8.198;2022-10-04T07:11:25;7.05;;;5.65;;
65271;SDS011;51868;48.812;8.198;2022-10-04T07:14:03;10.18;;;6.38;;
65271;SDS011;51868;48.812;8.198;2022-10-04T07:17:26;6.93;;;5.30;;
65271;SDS011;51868;48.812;8.198;2022-10-04T07:20:17;8.23;;;5.70;;
65271;SDS011;51868;48.812;8.198;2022-10-04T07:25:25;10.15;;;6.30;;
65271;SDS011;51868;48.812;8.198;2022-10-04T07:28:13;10.07;;;6.68;;
65271;SDS011;51868;48.812;8.198;2022-10-04T07:31:04;10.40;;;6.90;;
65271;SDS011;51868;48.812;8.198;2022-10-04T07:33:40;9.90;;;6.07;;
65271;SDS011;51868;48.812;8.198;2022-10-04T07:36:11;9.82;;;6.53;;
65271;SDS011;51868;48.812;8.198;2022-10-04T07:38:49;8.20;;;6.00;;
65271;SDS011;51868;48.812;8.198;2022-10-04T07:41:20;10.40;;;5.55;;
65271;SDS011;51868;48.812;8.198;2022-10-04T07:43:54;14.05;;;6.72;;
65271;SDS011;51868;48.812;8.198;2022-10-04T07:46:34;13.05;;;7.07;;
65271;SDS011;51868;48.812;8.198;2022-10-04T07:49:13;10.82;;;6.97;;
65271;SDS011;51868;48.812;8.198;2022-10-04T07:54:28;13.00;;;5.65;;
65271;SDS011;51868;48.812;8.198;2022-10-04T07:57:06;10.15;;;6.85;;
65271;SDS011;51868;48.812;8.198;2022-10-04T07:59:43;15.60;;;9.43;;
65271;SDS011;51868;48.812;8.198;2022-10-04T08:02:20;11.43;;;7.75;;
65271;SDS011;51868;48.812;8.198;2022-10-04T08:05:01;11.55;;;7.75;;
65271;SDS011;51868;48.812;8.198;2022-10-04T08:07:46;15.68;;;8.30;;
65271;SDS011;51868;48.812;8.198;2022-10-04T08:10:24;11.55;;;8.63;;
65271;SDS011;51868;48.812;8.198;2022-10-04T08:13:01;12.93;;;8.73;;
65271;SDS011;51868;48.812;8.198;2022-10-04T08:15:39;13.60;;;8.90;;
65271;SDS011;51868;48.812;8.198;2022-10-04T08:18:16;13.43;;;8.88;;
65271;SDS011;51868;48.812;8.198;2022-10-04T08:20:55;14.55;;;9.35;;
65271;SDS011;51868;48.812;8.198;2022-10-04T08:23:29;11.60;;;8.63;;
65271;SDS011;51868;48.812;8.198;2022-10-04T08:26:14;13.40;;;8.82;;
65271;SDS011;51868;48.812;8.198;2022-10-04T08:28:51;11.00;;;8.70;;
65271;SDS011;51868;48.812;8.198;2022-10-04T08:31:47;16.27;;;9.65;;
65271;SDS011;51868;48.812;8.198;2022-10-04T08:34:32;14.63;;;9.40;;
65271;SDS011;51868;48.812;8.198;2022-10-04T08:37:15;17.75;;;10.25;;
65271;SDS011;51868;48.812;8.198;2022-10-04T08:39:56;13.57;;;9.35;;
65271;SDS011;51868;48.812;8.198;2022-10-04T08:51:51;18.02;;;9.98;;
65271;SDS011;51868;48.812;8.198;2022-10-04T08:57:42;17.02;;;9.63;;
65271;SDS011;51868;48.812;8.198;2022-10-04T09:06:12;30.67;;;10.10;;
65271;SDS011;51868;48.812;8.198;2022-10-04T09:09:21;16.55;;;9.98;;
65271;SDS011;51868;48.812;8.198;2022-10-04T09:15:36;19.73;;;11.70;;
65271;SDS011;51868;48.812;8.198;2022-10-04T09:18:20;20.52;;;12.45;;
65271;SDS011;51868;48.812;8.198;2022-10-04T09:20:55;24.73;;;14.15;;
65271;SDS011;51868;48.812;8.198;2022-10-04T09:23:44;21.13;;;12.90;;
65271;SDS011;51868;48.812;8.198;2022-10-04T09:26:29;17.55;;;11.55;;
65271;SDS011;51868;48.812;8.198;2022-10-04T09:29:07;18.58;;;11.63;;
65271;SDS011;51868;48.812;8.198;2022-10-04T09:32:16;18.85;;;11.15;;
65271;SDS011;51868;48.812;8.198;2022-10-04T09:35:17;19.10;;;11.88;;
65271;SDS011;51868;48.812;8.198;2022-10-04T09:38:16;17.88;;;11.25;;
65271;SDS011;51868;48.812;8.198;2022-10-04T09:44:16;15.25;;;9.52;;
65271;SDS011;51868;48.812;8.198;2022-10-04T09:47:05;12.30;;;9.40;;
65271;SDS011;51868;48.812;8.198;2022-10-04T09:49:58;17.55;;;9.73;;
65271;SDS011;51868;48.812;8.198;2022-10-04T09:52:47;11.85;;;8.65;;
65271;SDS011;51868;48.812;8.198;2022-10-04T09:55:27;15.57;;;9.50;;
65271;SDS011;51868;48.812;8.198;2022-10-04T09:58:16;21.65;;;10.30;;
65271;SDS011;51868;48.812;8.198;2022-10-04T10:00:58;12.38;;;9.32;;
65271;SDS011;51868;48.812;8.198;2022-10-04T10:03:44;12.90;;;10.50;;
65271;SDS011;51868;48.812;8.198;2022-10-04T10:06:36;14.07;;;8.45;;
65271;SDS011;51868;48.812;8.198;2022-10-04T10:09:20;16.17;;;9.98;;
65271;SDS011;51868;48.812;8.198;2022-10-04T10:12:24;14.10;;;9.63;;
65271;SDS011;51868;48.812;8.198;2022-10-04T10:15:26;13.93;;;10.00;;
65271;SDS011;51868;48.812;8.198;2022-10-04T10:18:01;13.05;;;9.73;;
65271;SDS011;51868;48.812;8.198;2022-10-04T10:20:46;13.73;;;9.82;;
65271;SDS011;51868;48.812;8.198;2022-10-04T10:23:39;15.80;;;10.30;;
65271;SDS011;51868;48.812;8.198;2022-10-04T10:26:27;16.80;;;10.32;;
65271;SDS011;51868;48.812;8.198;2022-10-04T10:29:17;12.60;;;9.27;;
65271;SDS011;51868;48.812;8.198;2022-10-04T10:32:00;13.63;;;9.88;;
65271;SDS011;51868;48.812;8.198;2022-10-04T10:37:56;19.88;;;10.65;;
65271;SDS011;51868;48.812;8.198;2022-10-04T10:40:52;16.20;;;9.40;;
65271;SDS011;51868;48.812;8.198;2022-10-04T10:43:41;20.38;;;9.40;;
65271;SDS011;51868;48.812;8.198;2022-10-04T10:46:19;15.55;;;9.05;;
65271;SDS011;51868;48.812;8.198;2022-10-04T10:49:01;15.15;;;9.95;;
65271;SDS011;51868;48.812;8.198;2022-10-04T10:51:58;11.63;;;8.70;;
65271;SDS011;51868;48.812;8.198;2022-10-04T10:54:50;10.50;;;8.68;;
65271;SDS011;51868;48.812;8.198;2022-10-04T10:57:45;14.57;;;8.88;;
65271;SDS011;51868;48.812;8.198;2022-10-04T11:00:32;15.20;;;8.93;;
65271;SDS011;51868;48.812;8.198;2022-10-04T11:15:08;9.68;;;8.18;;
65271;SDS011;51868;48.812;8.198;2022-10-04T11:27:28;11.02;;;8.38;;
65271;SDS011;51868;48.812;8.198;2022-10-04T11:30:17;18.52;;;9.65;;
65271;SDS011;51868;48.812;8.198;2022-10-04T11:39:14;10.68;;;7.55;;
65271;SDS011;51868;48.812;8.198;2022-10-04T11:41:59;17.77;;;9.20;;
65271;SDS011;51868;48.812;8.198;2022-10-04T11:44:38;12.55;;;8.23;;
65271;SDS011;51868;48.812;8.198;2022-10-04T11:47:27;11.18;;;7.70;;
65271;SDS011;51868;48.812;8.198;2022-10-04T11:50:21;10.65;;;7.63;;
65271;SDS011;51868;48.812;8.198;2022-10-04T11:56:14;9.15;;;6.80;;
65271;SDS011;51868;48.812;8.198;2022-10-04T11:58:59;12.15;;;7.22;;
65271;SDS011;51868;48.812;8.198;2022-10-04T12:04:47;9.23;;;6.70;;
65271;SDS011;51868;48.812;8.198;2022-10-04T12:07:30;10.50;;;6.60;;
65271;SDS011;51868;48.812;8.198;2022-10-04T12:10:18;13.45;;;6.75;;
65271;SDS011;51868;48.812;8.198;2022-10-04T12:13:04;12.90;;;6.63;;
65271;SDS011;51868;48.812;8.198;2022-10-04T12:15:58;8.98;;;6.35;;
65271;SDS011;51868;48.812;8.198;2022-10-04T12:18:45;9.23;;;6.30;;
65271;SDS011;51868;48.812;8.198;2022-10-04T12:21:36;7.03;;;5.80;;
65271;SDS011;51868;48.812;8.198;2022-10-04T12:27:26;13.85;;;6.72;;
65271;SDS011;51868;48.812;8.198;2022-10-04T12:30:16;6.80;;;5.82;;
65271;SDS011;51868;48.812;8.198;2022-10-04T12:32:49;7.75;;;5.68;;
65271;SDS011;51868;48.812;8.198;2022-10-04T12:35:26;9.07;;;5.18;;
65271;SDS011;51868;48.812;8.198;2022-10-04T12:38:09;9.68;;;5.75;;
65271;SDS011;51868;48.812;8.198;2022-10-04T12:40:51;11.82;;;5.00;;
65271;SDS011;51868;48.812;8.198;2022-10-04T12:43:28;11.18;;;4.60;;
65271;SDS011;51868;48.812;8.198;2022-10-04T12:46:07;9.52;;;4.45;;
65271;SDS011;51868;48.812;8.198;2022-10-04T12:48:46;8.68;;;4.10;;
65271;SDS011;51868;48.812;8.198;2022-10-04T12:51:27;10.63;;;5.32;;
65271;SDS011;51868;48.812;8.198;2022-10-04T12:54:11;7.00;;;4.35;;
65271;SDS011;51868;48.812;8.198;2022-10-04T12:56:48;7.22;;;4.55;;
65271;SDS011;51868;48.812;8.198;2022-10-04T12:59:29;7.25;;;4.72;;
65271;SDS011;51868;48.812;8.198;2022-10-04T13:02:15;6.78;;;4.97;;
65271;SDS011;51868;48.812;8.198;2022-10-04T13:04:57;6.80;;;4.65;;
65271;SDS011;51868;48.812;8.198;2022-10-04T13:07:34;12.32;;;7.32;;
65271;SDS011;51868;48.812;8.198;2022-10-04T13:16:18;5.60;;;4.72;;
65271;SDS011;51868;48.812;8.198;2022-10-04T13:19:16;9.75;;;5.13;;
65271;SDS011;51868;48.812;8.198;2022-10-04T13:21:55;7.75;;;4.78;;
65271;SDS011;51868;48.812;8.198;2022-10-04T13:24:30;6.10;;;4.53;;
65271;SDS011;51868;48.812;8.198;2022-10-04T13:27:23;6.20;;;4.88;;
65271;SDS011;51868;48.812;8.198;2022-10-04T13:29:58;6.43;;;4.60;;
65271;SDS011;51868;48.812;8.198;2022-10-04T13:32:33;6.15;;;4.75;;
65271;SDS011;51868;48.812;8.198;2022-10-04T13:35:11;5.70;;;4.70;;
65271;SDS011;51868;48.812;8.198;2022-10-04T13:37:49;4.85;;;4.15;;
65271;SDS011;51868;48.812;8.198;2022-10-04T13:40:34;5.82;;;4.13;;
65271;SDS011;51868;48.812;8.198;2022-10-04T13:43:25;8.77;;;5.13;;
65271;SDS011;51868;48.812;8.198;2022-10-04T13:46:19;6.38;;;4.10;;
65271;SDS011;51868;48.812;8.198;2022-10-04T13:49:00;11.68;;;4.30;;
65271;SDS011;51868;48.812;8.198;2022-10-04T13:54:54;5.68;;;3.38;;
65271;SDS011;51868;48.812;8.198;2022-10-04T13:57:50;5.95;;;2.97;;
65271;SDS011;51868;48.812;8.198;2022-10-04T14:00:31;4.65;;;3.42;;
65271;SDS011;51868;48.812;8.198;2022-10-04T14:03:29;13.82;;;4.05;;
65271;SDS011;51868;48.812;8.198;2022-10-04T14:06:12;8.73;;;4.07;;
65271;SDS011;51868;48.812;8.198;2022-10-04T14:09:12;8.23;;;3.60;;
65271;SDS011;51868;48.812;8.198;2022-10-04T14:11:56;9.35;;;3.50;;
65271;SDS011;51868;48.812;8.198;2022-10-04T14:24:08;5.38;;;3.38;;
65271;SDS011;51868;48.812;8.198;2022-10-04T14:29:59;10.13;;;3.92;;
65271;SDS011;51868;48.812;8.198;2022-10-04T14:32:50;12.57;;;4.60;;
65271;SDS011;51868;48.812;8.198;2022-10-04T14:35:32;8.82;;;4.07;;
65271;SDS011;51868;48.812;8.198;2022-10-04T14:47:18;8.52;;;4.35;;
65271;SDS011;51868;48.812;8.198;2022-10-04T14:50:02;6.22;;;4.30;;
65271;SDS011;51868;48.812;8.198;2022-10-04T14:52:46;13.55;;;4.80;;
65271;SDS011;51868;48.812;8.198;2022-10-04T14:55:30;34.58;;;5.53;;
65271;SDS011;51868;48.812;8.198;2022-10-04T14:58:18;10.15;;;4.30;;
65271;SDS011;51868;48.812;8.198;2022-10-04T15:01:00;29.75;;;5.50;;
65271;SDS011;51868;48.812;8.198;2022-10-04T15:03:40;11.25;;;5.28;;
65271;SDS011;51868;48.812;8.198;2022-10-04T15:06:24;5.15;;;3.63;;
65271;SDS011;51868;48.812;8.198;2022-10-04T15:09:09;7.88;;;4.43;;
65271;SDS011;51868;48.812;8.198;2022-10-04T15:12:15;22.52;;;4.38;;
65271;SDS011;51868;48.812;8.198;2022-10-04T15:15:36;7.30;;;4.15;;
65271;SDS011;51868;48.812;8.198;2022-10-04T15:18:24;7.75;;;3.40;;
65271;SDS011;51868;48.812;8.198;2022-10-04T15:20:58;8.40;;;4.13;;
65271;SDS011;51868;48.812;8.198;2022-10-04T15:23:29;7.88;;;4.05;;
65271;SDS011;51868;48.812;8.198;2022-10-04T15:26:35;6.93;;;4.25;;
65271;SDS011;51868;48.812;8.198;2022-10-04T15:29:18;14.23;;;4.68;;
65271;SDS011;51868;48.812;8.198;2022-10-04T15:31:55;6.32;;;4.13;;
65271;SDS011;51868;48.812;8.198;2022-10-04T15:34:34;7.95;;;3.45;;
65271;SDS011;51868;48.812;8.198;2022-10-04T15:37:10;6.60;;;4.03;;
65271;SDS011;51868;48.812;8.198;2022-10-04T15:39:44;5.00;;;3.70;;
65271;SDS011;51868;48.812;8.198;2022-10-04T15:42:36;6.28;;;3.45;;
65271;SDS011;51868;48.812;8.198;2022-10-04T15:48:04;4.10;;;3.00;;
65271;SDS011;51868;48.812;8.198;2022-10-04T15:50:40;4.53;;;3.03;;
65271;SDS011;51868;48.812;8.198;2022-10-04T15:53:37;5.68;;;3.47;;
65271;SDS011;51868;48.812;8.198;2022-10-04T15:56:21;6.47;;;3.67;;
65271;SDS011;51868;48.812;8.198;2022-10-04T15:59:05;5.97;;;3.83;;
65271;SDS011;51868;48.812;8.198;2022-10-04T16:04:46;4.63;;;4.00;;
65271;SDS011;51868;48.812;8.198;2022-10-04T16:07:31;5.97;;;3.63;;
65271;SDS011;51868;48.812;8.198;2022-10-04T16:10:17;4.75;;;3.40;;
65271;SDS011;51868;48.812;8.198;2022-10-04T16:13:00;7.47;;;3.78;;
65271;SDS011;51868;48.812;8.198;2022-10-04T16:15:47;20.60;;;12.25;;
65271;SDS011;51868;48.812;8.198;2022-10-04T16:19:10;36.20;;;26.88;;
65271;SDS011;51868;48.812;8.198;2022-10-04T16:21:49;19.40;;;15.18;;
65271;SDS011;51868;48.812;8.198;2022-10-04T16:27:22;13.48;;;8.30;;
65271;SDS011;51868;48.812;8.198;2022-10-04T16:30:22;8.88;;;6.00;;
65271;SDS011;51868;48.812;8.198;2022-10-04T16:36:04;7.00;;;5.28;;
65271;SDS011;51868;48.812;8.198;2022-10-04T16:38:42;9.55;;;5.68;;
65271;SDS011;51868;48.812;8.198;2022-10-04T16:41:37;8.30;;;4.82;;
65271;SDS011;51868;48.812;8.198;2022-10-04T16:44:11;7.43;;;4.70;;
65271;SDS011;51868;48.812;8.198;2022-10-04T16:47:00;9.35;;;4.60;;
65271;SDS011;51868;48.812;8.198;2022-10-04T16:49:46;8.30;;;5.07;;
65271;SDS011;51868;48.812;8.198;2022-10-04T16:52:19;10.38;;;6.03;;
65271;SDS011;51868;48.812;8.198;2022-10-04T16:54:59;12.52;;;7.90;;
65271;SDS011;51868;48.812;8.198;2022-10-04T16:57:34;11.77;;;8.50;;
65271;SDS011;51868;48.812;8.198;2022-10-04T17:03:03;32.40;;;19.98;;
65271;SDS011;51868;48.812;8.198;2022-10-04T17:08:47;8.20;;;4.45;;
65271;SDS011;51868;48.812;8.198;2022-10-04T17:11:44;6.55;;;4.90;;
65271;SDS011;51868;48.812;8.198;2022-10-04T17:17:28;12.82;;;7.78;;
65271;SDS011;51868;48.812;8.198;2022-10-04T17:20:09;8.57;;;6.38;;
65271;SDS011;51868;48.812;8.198;2022-10-04T17:22:49;9.30;;;6.53;;
65271;SDS011;51868;48.812;8.198;2022-10-04T17:25:32;12.82;;;6.20;;
65271;SDS011;51868;48.812;8.198;2022-10-04T17:28:10;10.40;;;6.50;;
65271;SDS011;51868;48.812;8.198;2022-10-04T17:30:51;9.05;;;6.60;;
65271;SDS011;51868;48.812;8.198;2022-10-04T17:33:28;13.25;;;7.50;;
65271;SDS011;51868;48.812;8.198;2022-10-04T17:36:23;12.65;;;8.43;;
65271;SDS011;51868;48.812;8.198;2022-10-04T17:39:23;11.82;;;7.95;;
65271;SDS011;51868;48.812;8.198;2022-10-04T17:42:14;17.08;;;10.05;;
65271;SDS011;51868;48.812;8.198;2022-10-04T17:44:56;11.88;;;9.77;;
65271;SDS011;51868;48.812;8.198;2022-10-04T17:47:32;14.80;;;9.45;;
65271;SDS011;51868;48.812;8.198;2022-10-04T17:50:17;13.43;;;8.98;;
65271;SDS011;51868;48.812;8.198;2022-10-04T17:53:11;14.32;;;10.27;;
65271;SDS011;51868;48.812;8.198;2022-10-04T17:56:05;18.33;;;10.38;;
65271;SDS011;51868;48.812;8.198;2022-10-04T17:58:41;14.30;;;10.63;;
65271;SDS011;51868;48.812;8.198;2022-10-04T18:01:24;23.33;;;15.05;;
65271;SDS011;51868;48.812;8.198;2022-10-04T18:03:56;33.00;;;22.00;;
65271;SDS011;51868;48.812;8.198;2022-10-04T18:06:35;31.63;;;23.10;;
65271;SDS011;51868;48.812;8.198;2022-10-04T18:09:11;17.20;;;13.30;;
65271;SDS011;51868;48.812;8.198;2022-10-04T18:11:51;20.90;;;17.42;;
65271;SDS011;51868;48.812;8.198;2022-10-04T18:17:28;18.23;;;13.18;;
65271;SDS011;51868;48.812;8.198;2022-10-04T18:20:17;13.88;;;11.55;;
65271;SDS011;51868;48.812;8.198;2022-10-04T18:22:57;14.25;;;10.20;;
65271;SDS011;51868;48.812;8.198;2022-10-04T18:25:28;11.05;;;9.10;;
65271;SDS011;51868;48.812;8.198;2022-10-04T18:28:01;10.63;;;7.93;;